TimeCDT,TemperatureF,Dew PointF,Humidity,Sea Level PressureIn,VisibilityMPH,Wind Direction,Wind SpeedMPH,Gust SpeedMPH,PrecipitationIn,Events,Conditions,WindDirDegrees,DateUTC
12:52 AM,21.0,7.0,55,30.04,10.0,West,12.7,20.7,N/A,,Partly Cloudy,280,2013-03-20 05:52:00
1:52 AM,19.9,6.1,55,30.04,10.0,WNW,18.4,25.3,N/A,,Clear,290,2013-03-20 06:52:00
2:52 AM,18.0,3.9,54,30.04,10.0,WNW,16.1,21.9,N/A,,Partly Cloudy,290,2013-03-20 07:52:00
3:52 AM,17.1,3.0,54,30.04,10.0,WNW,15.0,26.5,N/A,,Clear,290,2013-03-20 08:52:00
4:52 AM,16.0,1.9,54,30.04,10.0,WNW,12.7,-,N/A,,Clear,290,2013-03-20 09:52:00
5:52 AM,14.0,1.0,56,30.04,10.0,WNW,15.0,24.2,N/A,,Partly Cloudy,290,2013-03-20 10:52:00
6:52 AM,12.9,-0.0,56,30.05,10.0,WNW,13.8,-,N/A,,Partly Cloudy,290,2013-03-20 11:52:00
7:52 AM,12.9,-2.0,51,30.07,10.0,WNW,15.0,21.9,N/A,,Clear,290,2013-03-20 12:52:00
8:52 AM,12.9,-2.0,51,30.07,10.0,West,15.0,-,N/A,,Clear,280,2013-03-20 13:52:00
9:52 AM,14.0,-0.9,52,30.07,10.0,WNW,17.3,25.3,N/A,,Clear,300,2013-03-20 14:52:00
10:52 AM,16.0,-0.0,49,30.06,10.0,WNW,15.0,23.0,N/A,,Clear,290,2013-03-20 15:52:00
11:52 AM,17.1,1.0,50,30.06,10.0,WNW,16.1,24.2,N/A,,Clear,290,2013-03-20 16:52:00
12:52 PM,19.0,1.9,47,30.06,10.0,West,15.0,-,N/A,,Partly Cloudy,270,2013-03-20 17:52:00
1:52 PM,19.0,1.9,47,30.05,10.0,WNW,15.0,24.2,N/A,,Partly Cloudy,290,2013-03-20 18:52:00
2:52 PM,19.9,3.0,48,30.04,10.0,West,17.3,24.2,N/A,,Scattered Clouds,270,2013-03-20 19:52:00
3:52 PM,19.9,3.0,48,30.03,10.0,WNW,15.0,24.2,N/A,,Mostly Cloudy,290,2013-03-20 20:52:00
4:52 PM,19.9,1.9,46,30.04,10.0,WNW,19.6,26.5,N/A,,Mostly Cloudy,290,2013-03-20 21:52:00
5:52 PM,19.9,3.0,48,30.05,10.0,NW,15.0,27.6,N/A,,Scattered Clouds,310,2013-03-20 22:52:00
6:52 PM,19.0,3.0,50,30.06,10.0,WNW,13.8,-,N/A,,Mostly Cloudy,290,2013-03-20 23:52:00
7:52 PM,18.0,3.0,52,30.06,10.0,WNW,11.5,19.6,N/A,,Partly Cloudy,300,2013-03-21 00:52:00
8:52 PM,17.6,1.4,49,30.02,10.0,WNW,11.5,-,N/A,,Partly Cloudy,300,2013-03-21 01:52:00
9:52 PM,17.1,1.9,52,30.06,10.0,WNW,11.5,-,N/A,,Scattered Clouds,300,2013-03-21 02:52:00
10:52 PM,16.0,1.0,52,30.06,10.0,WNW,13.8,20.7,N/A,,Mostly Cloudy,300,2013-03-21 03:52:00
11:52 PM,16.0,1.9,54,30.05,10.0,WNW,12.7,-,N/A,,Clear,300,2013-03-21 04:52:00